Kykotsmovi Village, Arizona
Current Conditions -  °F | °C
As of 10:56 PM on Friday 19 Dec 2014 (Local Time) from KINW Reporting Station
Clear Clear  
Wind Chill: 22°   Ceiling: Unl
Heat Index: 27°   Visibility: 10mi
Dew Point: 24°   Wind: 5mph
Humidity: 89%   Direction: 120°ESE
Pressure: 30.24"   Gusts: NA
Location:  35.87°N, 110.62°W
Report Text: KINW 200556Z AUTO 12004KT 10SM CLR M03/M04 A3024 RMK AO2 SLP258 I1000 I6000 T10281044 10044 21033 55001
Loading
Personal Weather Stations






























Interactive Weather Map New forecast layout! Learn more

10-Day Weather Forecast

Advertisements
Track Severe Weather on mobile